Yellowstone Airport
KWYS : now visible

Airfield :











YOU CAN JOIN US ON...

 
LOGIN :

Register | Disclaimer

   EN    FR    IT 

 









Legend :    VFR   Marginal VFR   IFR   Intensive IFR   Very Intensive IFR
Visi :
Ceiling :
>= 8 km
>= 3000ft
5 to 8 km
1000 to 3000 ft
1500m to 5 km
500 to 1000 ft
800 to 1500m
200 to 500 ft
< 800m
< 200 ft
Symbols :   Thunderstorms  Fog  Heavy snow  Heavy precipitations  Wind > 20 kt







- Airport Elevation : 6649 ft


KWYS - Yellowstone

CURRENT METAR :
  • 221935Z AUTO 02015G22KT 10SM OVC050 05/M02 A2988 RMK AO2

EXPIRED METARs :
  • 221915Z AUTO 01016KT 10SM BKN048 OVC055 06/M02 A2987 RMK AO2
  • 221855Z AUTO 02014KT 10SM BKN046 OVC055 05/M03 A2986 RMK AO2
  • 221830Z AUTO 01010G16KT 10SM BKN049 BKN070 05/M02 A2986 RMK AO2
  • 221810Z AUTO 01011G18KT 10SM SCT041 BKN049 BKN075 05/M03 A2985 RMK AO2
  • 221755Z AUTO 02012G18KT 10SM FEW044 FEW050 BKN070 05/M03 A2985 RMK AO2
  • 221735Z AUTO 02008G16KT 10SM FEW043 SCT050 BKN065 04/M02 A2985 RMK AO2
  • 221715Z AUTO 02014KT 10SM FEW044 04/M03 A2984 RMK AO2
  • 221650Z AUTO 02012KT 10SM FEW090 03/M03 A2984 RMK AO2

TAF N/A
KZLC FIR / North America



MET'MAP, your aeronautical weather chart ! - Copyright ORBIFLY December 2007 - Disclaimer

ORBIFLY MET'MAP TEAM :

Programming & Development : Alexandra Zaïnal
Concept & Development : Baudouin d'Aumeries
Co-Development & Prog : Marc-Olivier Méhu
Technical & hardware support : Manuel Goepfert

Contact : metmap@orbifly.com




SOURCES & CREDITS :

   NOAA       Earth
Advisory